Time;durP1;ratioP1;P1;durP2;ratioP2;P2;SDS_P1;SDS_P2;PMS_P1;PMS_P2;Temp;Humidity;BMP_temperature;BMP_pressure;BME280_temperature;BME280_humidity;BME280_pressure;Samples;Min_cycle;Max_cycle;Signal;HPM_P1;HPM_P2
2023/08/17 00:01:59;;;;;;;9.80;3.00;;;20.50;98.00;;;;;;5053540;28;20450;-71
2023/08/17 00:04:26;;;;;;;4.90;2.97;;;20.60;98.00;;;;;;5053629;28;20470;-71
2023/08/17 00:06:53;;;;;;;5.23;3.23;;;20.60;98.00;;;;;;5053596;28;20951;-71
2023/08/17 00:09:20;;;;;;;4.63;3.07;;;20.40;98.00;;;;;;5053581;28;20456;-72
2023/08/17 00:11:47;;;;;;;4.20;2.80;;;20.40;98.00;;;;;;5053397;28;20540;-72
2023/08/17 00:14:15;;;;;;;4.50;2.73;;;20.50;98.00;;;;;;5053540;28;20458;-71
2023/08/17 00:16:42;;;;;;;9.30;3.23;;;20.40;98.00;;;;;;5052966;28;20453;-71
2023/08/17 00:19:09;;;;;;;4.27;2.93;;;20.40;98.00;;;;;;5053574;28;20559;-71
2023/08/17 00:21:37;;;;;;;5.83;3.13;;;20.50;98.00;;;;;;5053230;28;20446;-71
2023/08/17 00:24:04;;;;;;;4.83;2.90;;;20.30;98.00;;;;;;5053307;28;20456;-71
2023/08/17 00:26:31;;;;;;;5.83;3.20;;;20.20;98.00;;;;;;5052467;28;20524;-71
2023/08/17 00:28:58;;;;;;;3.93;3.00;;;20.20;98.00;;;;;;5053011;28;20532;-71
2023/08/17 00:31:28;;;;;;;5.30;3.37;;;20.00;98.00;;;;;;5052889;28;20454;-71
2023/08/17 00:33:55;;;;;;;4.73;2.90;;;19.90;98.00;;;;;;5052964;28;20507;-71
2023/08/17 00:36:25;;;;;;;4.47;3.10;;;19.90;98.00;;;;;;5052881;28;20457;-71
2023/08/17 00:38:52;;;;;;;5.40;3.07;;;20.00;98.00;;;;;;5052909;28;20494;-71
2023/08/17 00:41:20;;;;;;;6.50;2.87;;;20.00;98.00;;;;;;5052832;28;20453;-71
2023/08/17 00:43:47;;;;;;;5.63;3.20;;;20.00;98.00;;;;;;5051594;28;20457;-71
2023/08/17 00:46:14;;;;;;;4.80;2.73;;;20.00;98.00;;;;;;5052788;28;20450;-71
2023/08/17 00:48:43;;;;;;;5.47;3.50;;;20.00;98.00;;;;;;5052782;28;20482;-71
2023/08/17 00:51:11;;;;;;;4.30;3.07;;;20.00;98.00;;;;;;5052777;28;20457;-71
2023/08/17 00:53:38;;;;;;;5.93;3.03;;;20.10;98.00;;;;;;5052723;28;20453;-71
2023/08/17 00:56:05;;;;;;;5.50;3.17;;;20.10;98.00;;;;;;5051453;28;20620;-71
2023/08/17 00:58:33;;;;;;;4.80;2.70;;;20.20;98.00;;;;;;5052493;28;20505;-71
2023/08/17 01:01:00;;;;;;;5.97;3.33;;;20.20;98.00;;;;;;5052568;28;20445;-71
2023/08/17 01:03:29;;;;;;;4.43;3.00;;;20.20;98.00;;;;;;5052433;28;20912;-71
2023/08/17 01:05:58;;;;;;;4.93;3.30;;;20.20;98.00;;;;;;5052532;28;20538;-71
2023/08/17 01:08:25;;;;;;;5.10;2.97;;;20.10;98.00;;;;;;5052463;28;20460;-71
2023/08/17 01:11:00;;;;;;;4.70;3.10;;;20.10;98.00;;;;;;5052408;28;20457;-71
2023/08/17 01:13:35;;;;;;;6.83;3.13;;;19.90;98.00;;;;;;5051115;28;20461;-71
2023/08/17 01:16:07;;;;;;;4.20;2.93;;;19.80;98.00;;;;;;5052367;28;20955;-71
2023/08/17 01:18:38;;;;;;;4.90;3.27;;;19.70;98.00;;;;;;5051901;28;20482;-71
2023/08/17 01:21:11;;;;;;;5.70;3.30;;;19.50;98.00;;;;;;5052217;28;20462;-71
2023/08/17 01:23:39;;;;;;;6.17;3.20;;;19.60;98.00;;;;;;5051976;28;20488;-71
2023/08/17 01:26:06;;;;;;;6.17;3.20;;;19.70;98.00;;;;;;5051952;28;20449;-71
2023/08/17 01:28:34;;;;;;;6.77;3.10;;;19.70;98.00;;;;;;5051858;28;20446;-72
2023/08/17 01:31:06;;;;;;;4.63;3.20;;;19.70;98.00;;;;;;5051962;28;20454;-72
2023/08/17 01:33:39;;;;;;;3.73;2.93;;;19.60;98.00;;;;;;5051898;28;20453;-71
2023/08/17 01:36:12;;;;;;;5.10;3.30;;;19.60;98.00;;;;;;5051784;28;20470;-71
2023/08/17 01:38:42;;;;;;;13.13;3.63;;;19.60;98.00;;;;;;5050871;28;20573;-71
2023/08/17 01:41:12;;;;;;;5.43;3.30;;;19.50;98.00;;;;;;5051955;28;20502;-71
2023/08/17 01:43:41;;;;;;;4.10;3.03;;;19.50;98.00;;;;;;5051916;28;20457;-71
2023/08/17 01:46:09;;;;;;;5.23;3.00;;;19.60;98.00;;;;;;5051728;28;20796;-71
2023/08/17 01:48:36;;;;;;;7.00;3.70;;;19.60;98.00;;;;;;5051923;28;20462;-71
2023/08/17 01:51:03;;;;;;;5.30;3.13;;;19.50;98.00;;;;;;5050849;28;20454;-71
2023/08/17 01:53:30;;;;;;;6.40;3.30;;;19.50;98.00;;;;;;5051813;28;20500;-71
2023/08/17 01:56:01;;;;;;;4.33;3.23;;;19.40;98.00;;;;;;5052048;28;20449;-71
2023/08/17 01:58:28;;;;;;;4.27;3.10;;;19.40;98.00;;;;;;5051852;28;20485;-71
2023/08/17 02:00:58;;;;;;;4.80;3.40;;;19.40;98.00;;;;;;5051842;28;20457;-71
2023/08/17 02:03:25;;;;;;;5.40;2.80;;;19.50;98.00;;;;;;5052051;28;20462;-71
2023/08/17 02:05:52;;;;;;;5.30;3.10;;;19.60;98.00;;;;;;5051965;28;20512;-71
2023/08/17 02:08:19;;;;;;;5.10;3.50;;;19.60;98.00;;;;;;5051595;28;20450;-71
2023/08/17 02:10:46;;;;;;;5.87;3.50;;;19.50;98.00;;;;;;5050765;28;20831;-71
2023/08/17 02:13:15;;;;;;;7.63;3.70;;;19.40;98.00;;;;;;5051381;28;20512;-71
2023/08/17 02:15:42;;;;;;;7.37;3.43;;;19.30;98.00;;;;;;5051464;28;20951;-71
2023/08/17 02:18:10;;;;;;;5.60;3.27;;;19.20;98.00;;;;;;5051266;28;20843;-71
2023/08/17 02:20:37;;;;;;;5.40;3.30;;;19.10;98.00;;;;;;5050313;28;20445;-71
2023/08/17 02:23:04;;;;;;;8.27;3.70;;;19.00;98.00;;;;;;5051301;28;20457;-71
2023/08/17 02:25:35;;;;;;;6.00;3.70;;;18.90;98.00;;;;;;5051517;28;20465;-71
2023/08/17 02:28:03;;;;;;;8.80;3.90;;;19.00;98.00;;;;;;5051325;28;20830;-71
2023/08/17 02:30:31;;;;;;;5.20;3.07;;;19.10;98.00;;;;;;5051413;28;20507;-71
2023/08/17 02:32:58;;;;;;;6.90;3.50;;;19.10;98.00;;;;;;5051287;28;20816;-71
2023/08/17 02:35:27;;;;;;;4.77;3.10;;;19.20;98.00;;;;;;5051224;28;20458;-71
2023/08/17 02:37:54;;;;;;;3.87;3.10;;;19.20;98.00;;;;;;5051314;28;20450;-71
2023/08/17 02:40:23;;;;;;;6.83;2.97;;;19.40;98.00;;;;;;5051290;28;20482;-71
2023/08/17 02:42:50;;;;;;;11.03;3.43;;;19.50;98.00;;;;;;5051188;28;20527;-71
2023/08/17 02:45:17;;;;;;;4.10;2.80;;;19.40;98.00;;;;;;5051215;28;20818;-71
2023/08/17 02:47:46;;;;;;;7.97;3.30;;;19.30;98.00;;;;;;5051305;28;20515;-71
2023/08/17 02:50:13;;;;;;;7.07;3.30;;;19.30;98.00;;;;;;5053147;28;20459;-71
2023/08/17 02:52:40;;;;;;;6.30;3.10;;;19.20;98.00;;;;;;5054999;28;20823;-71
2023/08/17 02:55:07;;;;;;;8.40;3.43;;;19.10;98.00;;;;;;5055060;28;20460;-71
2023/08/17 02:57:34;;;;;;;4.37;3.00;;;19.10;98.00;;;;;;5055099;28;20450;-71
2023/08/17 03:00:02;;;;;;;5.50;3.40;;;19.10;98.00;;;;;;5055133;28;20481;-71
2023/08/17 03:02:29;;;;;;;5.23;3.17;;;19.10;98.00;;;;;;5054683;28;20485;-71
2023/08/17 03:04:57;;;;;;;5.03;3.30;;;19.10;98.00;;;;;;5054979;28;20468;-71
2023/08/17 03:07:24;;;;;;;6.80;3.53;;;19.10;98.00;;;;;;5054370;28;20965;-71
2023/08/17 03:09:51;;;;;;;8.20;3.60;;;19.10;98.00;;;;;;5054804;28;20457;-71
2023/08/17 03:12:18;;;;;;;5.50;3.40;;;19.10;98.00;;;;;;5054265;28;21031;-71
2023/08/17 03:14:45;;;;;;;12.43;3.23;;;19.20;98.00;;;;;;5054701;28;20524;-71
2023/08/17 03:17:12;;;;;;;9.53;3.80;;;19.30;98.00;;;;;;5054177;28;20470;-71
2023/08/17 03:19:43;;;;;;;6.93;3.67;;;19.20;98.00;;;;;;5054084;28;20564;-71
2023/08/17 03:22:13;;;;;;;8.43;4.00;;;19.30;98.00;;;;;;5053042;28;20453;-71
2023/08/17 03:24:40;;;;;;;6.27;3.80;;;19.40;98.00;;;;;;5053091;28;20445;-71
2023/08/17 03:27:07;;;;;;;9.60;4.20;;;19.30;98.00;;;;;;5054334;28;20449;-71
2023/08/17 03:29:34;;;;;;;12.70;5.00;;;19.30;98.00;;;;;;5054191;28;20450;-71
2023/08/17 03:32:01;;;;;;;9.67;4.50;;;19.30;98.00;;;;;;5054163;28;21123;-71
2023/08/17 03:34:28;;;;;;;10.10;4.80;;;19.30;98.00;;;;;;5053643;28;20469;-71
2023/08/17 03:37:17;;;;;;;10.90;4.83;;;19.30;98.00;;;;;;5054125;28;20461;-71
2023/08/17 03:39:45;;;;;;;7.87;4.43;;;19.20;98.00;;;;;;5053958;28;20493;-71
2023/08/17 03:42:12;;;;;;;8.53;4.27;;;19.10;98.00;;;;;;5053950;28;20457;-71
2023/08/17 03:44:39;;;;;;;8.83;4.50;;;19.20;98.00;;;;;;5053706;28;20959;-71
2023/08/17 03:47:06;;;;;;;8.97;5.13;;;19.20;98.00;;;;;;5053859;28;20450;-71
2023/08/17 03:49:33;;;;;;;7.80;4.20;;;19.20;98.00;;;;;;5054072;28;21021;-71
2023/08/17 03:52:00;;;;;;;7.40;4.50;;;19.20;98.00;;;;;;5053827;28;20480;-71
2023/08/17 03:54:29;;;;;;;11.33;4.50;;;19.40;98.00;;;;;;5054316;28;20529;-71
2023/08/17 03:56:57;;;;;;;6.20;3.80;;;19.50;98.00;;;;;;5053771;28;20973;-72
2023/08/17 03:59:24;;;;;;;8.10;4.63;;;19.40;98.00;;;;;;5053520;28;20481;-71
2023/08/17 04:01:52;;;;;;;8.60;4.23;;;19.50;98.00;;;;;;5052706;28;20473;-71
2023/08/17 04:04:19;;;;;;;8.47;4.17;;;19.50;98.00;;;;;;5053553;28;20449;-71
2023/08/17 04:06:46;;;;;;;10.40;4.07;;;19.60;98.00;;;;;;5053478;28;20458;-71
2023/08/17 04:09:13;;;;;;;13.27;5.30;;;19.70;98.00;;;;;;5052253;28;20469;-71
2023/08/17 04:11:40;;;;;;;13.00;4.80;;;19.70;98.00;;;;;;5053527;28;20980;-71
2023/08/17 04:14:08;;;;;;;11.70;4.70;;;19.60;98.00;;;;;;5053205;28;20480;-71
2023/08/17 04:16:36;;;;;;;10.87;5.00;;;19.50;98.00;;;;;;5053463;28;20525;-71
2023/08/17 04:19:03;;;;;;;8.80;4.47;;;19.40;98.00;;;;;;5053153;28;20474;-71
2023/08/17 04:21:30;;;;;;;10.13;4.43;;;19.30;98.00;;;;;;5053351;28;20968;-71
2023/08/17 04:23:57;;;;;;;12.50;5.33;;;19.30;98.00;;;;;;5052951;28;20503;-71
2023/08/17 04:26:24;;;;;;;10.73;5.27;;;19.40;98.00;;;;;;5053257;28;20508;-71
2023/08/17 04:28:52;;;;;;;8.40;4.60;;;19.40;98.00;;;;;;5051809;28;20477;-71
2023/08/17 04:31:20;;;;;;;8.20;4.73;;;19.40;98.00;;;;;;5053185;28;20461;-71
2023/08/17 04:33:47;;;;;;;10.77;4.67;;;19.30;98.00;;;;;;5053086;28;20548;-71
2023/08/17 04:36:14;;;;;;;9.87;4.40;;;19.40;98.00;;;;;;5052936;28;20470;-71
2023/08/17 04:38:41;;;;;;;10.10;4.57;;;19.50;98.00;;;;;;5053034;28;20473;-71
2023/08/17 04:41:08;;;;;;;10.20;4.80;;;19.70;98.00;;;;;;5051783;28;20576;-71
2023/08/17 04:43:35;;;;;;;9.93;4.80;;;19.70;98.00;;;;;;5053016;28;20928;-72
2023/08/17 04:46:03;;;;;;;7.70;4.60;;;19.90;98.00;;;;;;5052892;28;20511;-71
2023/08/17 04:48:31;;;;;;;11.80;4.60;;;19.90;98.00;;;;;;5053063;28;20454;-71
2023/08/17 04:50:59;;;;;;;10.00;5.50;;;19.90;98.00;;;;;;5052666;28;20450;-71
2023/08/17 04:53:26;;;;;;;11.37;5.20;;;19.90;98.00;;;;;;5052650;28;20461;-71
2023/08/17 04:55:53;;;;;;;12.50;5.03;;;19.90;98.00;;;;;;5052500;28;20450;-71
2023/08/17 04:58:20;;;;;;;10.33;5.03;;;19.80;98.00;;;;;;5052377;28;20474;-71
2023/08/17 05:00:48;;;;;;;13.23;5.20;;;19.80;98.00;;;;;;5052333;28;20558;-71
2023/08/17 05:03:15;;;;;;;10.97;4.50;;;20.00;98.00;;;;;;5052338;28;20484;-71
2023/08/17 05:05:43;;;;;;;9.67;4.33;;;20.00;98.00;;;;;;5052407;28;20446;-71
2023/08/17 05:08:10;;;;;;;12.50;5.07;;;20.10;98.00;;;;;;5052118;28;20808;-71
2023/08/17 05:10:37;;;;;;;10.67;4.70;;;20.10;98.00;;;;;;5052338;28;20457;-71
2023/08/17 05:13:04;;;;;;;10.83;4.80;;;20.00;98.00;;;;;;5051991;28;20480;-71
2023/08/17 05:15:31;;;;;;;12.30;5.43;;;20.00;98.00;;;;;;5052397;28;20454;-71
2023/08/17 05:17:58;;;;;;;8.20;4.40;;;20.10;98.00;;;;;;5050935;28;20461;-71
2023/08/17 05:20:26;;;;;;;10.47;4.80;;;20.20;98.00;;;;;;5052156;28;20555;-71
2023/08/17 05:22:54;;;;;;;11.70;5.10;;;20.30;98.00;;;;;;5052123;28;20458;-71
2023/08/17 05:25:21;;;;;;;10.90;4.93;;;20.50;98.00;;;;;;5052380;28;20461;-71
2023/08/17 05:27:49;;;;;;;10.03;4.83;;;20.40;98.00;;;;;;5051916;28;20858;-71
2023/08/17 05:30:17;;;;;;;11.37;5.60;;;20.20;98.00;;;;;;5052213;28;20540;-71
2023/08/17 05:32:44;;;;;;;12.70;5.60;;;20.20;98.00;;;;;;5052180;28;20449;-71
2023/08/17 05:35:12;;;;;;;9.07;4.63;;;20.20;98.00;;;;;;5052050;28;20466;-71
2023/08/17 05:37:39;;;;;;;10.50;5.27;;;20.50;98.00;;;;;;5052182;28;20449;-71
2023/08/17 05:40:10;;;;;;;11.27;5.90;;;20.50;98.00;;;;;;5052008;28;20481;-71
2023/08/17 05:42:37;;;;;;;10.40;5.13;;;20.70;98.00;;;;;;5052157;28;20450;-71
2023/08/17 05:45:05;;;;;;;10.70;4.90;;;20.70;98.00;;;;;;5051771;28;20936;-72
2023/08/17 05:47:33;;;;;;;9.37;4.80;;;20.70;98.00;;;;;;5051701;28;20450;-71
2023/08/17 05:50:00;;;;;;;9.30;5.10;;;20.70;98.00;;;;;;5051831;28;20460;-71
2023/08/17 05:52:27;;;;;;;10.27;5.37;;;20.60;98.00;;;;;;5051703;28;20488;-71
2023/08/17 05:54:54;;;;;;;8.20;4.60;;;20.60;98.00;;;;;;5051824;28;20854;-70
2023/08/17 05:57:23;;;;;;;9.77;4.87;;;20.40;98.00;;;;;;5051590;28;20454;-71
2023/08/17 05:59:50;;;;;;;9.63;5.20;;;20.50;98.00;;;;;;5051652;28;20481;-70
2023/08/17 06:02:17;;;;;;;8.60;4.77;;;20.60;98.00;;;;;;5050283;28;20450;-68
2023/08/17 06:04:44;;;;;;;8.10;4.40;;;20.60;98.00;;;;;;5051342;28;20971;-68
2023/08/17 06:07:11;;;;;;;11.50;5.37;;;20.80;98.00;;;;;;5051430;28;20479;-68
2023/08/17 06:09:38;;;;;;;10.80;5.20;;;20.90;98.00;;;;;;5050442;28;20540;-68
2023/08/17 06:12:06;;;;;;;9.70;5.10;;;21.00;98.00;;;;;;5051504;28;20453;-69
2023/08/17 06:14:35;;;;;;;8.23;4.93;;;21.00;98.00;;;;;;5051593;28;20445;-69
2023/08/17 06:17:02;;;;;;;10.83;5.40;;;21.10;98.00;;;;;;5051367;28;20785;-68
2023/08/17 06:19:29;;;;;;;12.70;5.73;;;21.00;98.00;;;;;;5051659;28;20528;-68
2023/08/17 06:21:56;;;;;;;9.63;5.20;;;21.00;98.00;;;;;;5051665;28;20461;-68
2023/08/17 06:24:23;;;;;;;9.57;5.13;;;21.00;98.00;;;;;;5052118;28;20449;-68
2023/08/17 06:26:50;;;;;;;13.10;5.53;;;21.00;98.00;;;;;;5055540;28;20445;-68
2023/08/17 06:29:17;;;;;;;8.93;5.03;;;21.10;98.00;;;;;;5055603;28;20811;-68
2023/08/17 06:31:46;;;;;;;14.53;5.50;;;21.10;98.00;;;;;;5055590;28;21207;-69
2023/08/17 06:34:14;;;;;;;8.13;4.70;;;21.00;98.00;;;;;;5055481;28;20469;-68
2023/08/17 06:36:41;;;;;;;10.57;5.20;;;20.90;98.00;;;;;;5055423;28;20452;-69
2023/08/17 06:39:08;;;;;;;9.53;5.30;;;20.90;98.00;;;;;;5055237;28;20460;-69
2023/08/17 06:41:35;;;;;;;9.03;4.80;;;20.80;98.00;;;;;;5055128;28;20485;-69
2023/08/17 06:44:02;;;;;;;8.13;4.87;;;20.90;98.00;;;;;;5055088;28;20499;-68
2023/08/17 06:46:29;;;;;;;10.13;4.77;;;20.90;98.00;;;;;;5055147;28;20454;-69
2023/08/17 06:48:58;;;;;;;8.97;5.20;;;20.90;98.00;;;;;;5053610;28;20955;-69
2023/08/17 06:51:28;;;;;;;10.07;5.30;;;21.00;98.00;;;;;;5054976;28;20450;-68
2023/08/17 06:53:55;;;;;;;9.17;4.73;;;21.10;98.00;;;;;;5054740;28;20461;-69
2023/08/17 06:56:25;;;;;;;9.03;4.90;;;21.10;98.00;;;;;;5054887;28;20507;-69
2023/08/17 06:58:53;;;;;;;9.40;4.80;;;21.20;98.00;;;;;;5053221;28;20456;-69
2023/08/17 07:01:20;;;;;;;8.33;4.90;;;21.20;98.00;;;;;;5054606;28;20554;-69
2023/08/17 07:03:47;;;;;;;11.17;5.10;;;21.40;98.00;;;;;;5054818;28;20477;-68
2023/08/17 07:08:43;;;;;;;10.07;5.97;;;21.50;98.00;;;;;;5032751;28;20870;-66
2023/08/17 07:11:10;;;;;;;10.27;5.40;;;21.50;98.00;;;;;;5034390;28;20794;-67
2023/08/17 07:13:38;;;;;;;8.47;5.23;;;21.60;98.00;;;;;;5033497;28;20509;-66
2023/08/17 07:16:05;;;;;;;13.50;6.30;;;21.70;98.00;;;;;;5034085;28;20798;-67
2023/08/17 07:18:32;;;;;;;12.10;5.77;;;21.60;98.00;;;;;;5034100;28;20521;-66
2023/08/17 07:20:59;;;;;;;10.47;5.30;;;21.60;98.00;;;;;;5034238;28;21046;-67
2023/08/17 07:23:26;;;;;;;12.83;5.50;;;21.50;98.00;;;;;;5034316;28;20459;-66
2023/08/17 07:25:55;;;;;;;11.07;4.90;;;21.40;98.00;;;;;;5034151;28;20450;-66
2023/08/17 07:28:22;;;;;;;8.20;3.70;;;21.60;98.00;;;;;;4996994;28;20459;-66
2023/08/17 07:30:50;;;;;;;9.53;5.10;;;21.90;98.00;;;;;;5014520;28;20451;-66
2023/08/17 07:33:17;;;;;;;10.30;5.40;;;22.10;98.00;;;;;;5014488;28;20972;-66
2023/08/17 07:35:44;;;;;;;9.63;4.90;;;22.30;98.00;;;;;;4996765;28;20448;-66
2023/08/17 07:38:11;;;;;;;9.17;5.07;;;22.20;98.00;;;;;;5023160;28;20459;-63
2023/08/17 07:40:38;;;;;;;13.37;5.63;;;22.40;98.00;;;;;;5033847;28;20485;-63
2023/08/17 07:43:07;;;;;;;9.93;5.40;;;22.50;98.00;;;;;;5034059;28;20459;-63
2023/08/17 07:45:34;;;;;;;10.23;4.80;;;22.50;98.00;;;;;;5033673;28;20565;-63
2023/08/17 07:48:01;;;;;;;9.00;5.10;;;22.60;98.00;;;;;;5033874;28;20454;-64
2023/08/17 07:50:28;;;;;;;10.43;5.40;;;22.70;98.00;;;;;;5033998;28;20937;-63
2023/08/17 07:52:55;;;;;;;8.23;4.80;;;22.70;98.00;;;;;;5033556;28;20454;-63
2023/08/17 07:55:23;;;;;;;9.47;5.60;;;22.60;98.00;;;;;;5032496;28;20458;-63
2023/08/17 07:57:50;;;;;;;9.63;5.27;;;22.60;98.00;;;;;;5033524;28;20490;-63
2023/08/17 08:00:19;;;;;;;8.20;4.90;;;22.60;98.00;;;;;;5033685;28;20845;-63
2023/08/17 08:02:47;;;;;;;15.90;5.47;;;22.50;98.00;;;;;;5033815;28;21121;-64
2023/08/17 08:05:15;;;;;;;8.70;5.30;;;22.70;98.00;;;;;;5033623;28;20455;-67
2023/08/17 08:07:42;;;;;;;9.63;5.10;;;22.80;98.00;;;;;;5015429;28;20976;-66
2023/08/17 08:10:09;;;;;;;11.27;5.53;;;22.80;98.00;;;;;;5033412;28;20446;-67
2023/08/17 08:12:36;;;;;;;8.77;4.80;;;22.80;98.00;;;;;;5033193;28;20451;-68
2023/08/17 08:15:05;;;;;;;11.17;6.10;;;22.90;98.00;;;;;;5033588;28;20454;-68
2023/08/17 08:17:33;;;;;;;8.83;4.90;;;22.90;98.00;;;;;;5015825;28;20462;-68
2023/08/17 08:20:00;;;;;;;10.20;6.07;;;22.90;98.00;;;;;;5033416;28;20447;-68
2023/08/17 08:22:27;;;;;;;10.07;5.60;;;22.80;98.00;;;;;;5033346;28;20462;-68
2023/08/17 08:24:55;;;;;;;10.90;6.00;;;22.80;98.00;;;;;;5033513;28;20504;-68
2023/08/17 08:27:23;;;;;;;7.83;4.30;;;22.70;98.00;;;;;;5015850;28;20948;-68
2023/08/17 08:29:50;;;;;;;8.63;4.50;;;22.80;98.00;;;;;;5033295;28;20493;-67
2023/08/17 08:32:17;;;;;;;11.83;6.30;;;23.10;98.00;;;;;;5032990;28;20446;-67
2023/08/17 08:34:46;;;;;;;11.97;6.50;;;23.30;98.00;;;;;;5033127;28;20451;-67
2023/08/17 08:37:13;;;;;;;8.83;5.33;;;23.30;98.00;;;;;;5032545;28;20916;-68
2023/08/17 08:39:49;;;;;;;9.33;5.10;;;23.20;98.00;;;;;;5032984;28;20489;-67
2023/08/17 08:42:20;;;;;;;8.97;5.60;;;23.20;98.00;;;;;;5032840;28;20492;-67
2023/08/17 08:44:47;;;;;;;9.90;4.30;;;23.20;98.00;;;;;;5032761;28;20458;-67
2023/08/17 08:47:18;;;;;;;10.53;5.80;;;23.40;98.00;;;;;;5031993;28;20455;-67
2023/08/17 08:49:54;;;;;;;8.97;5.23;;;23.60;98.00;;;;;;5032863;28;20473;-67
2023/08/17 08:52:24;;;;;;;10.87;6.07;;;23.70;98.00;;;;;;5032437;28;20925;-64
2023/08/17 08:54:54;;;;;;;8.00;5.20;;;23.90;98.00;;;;;;5032811;28;20501;-64
2023/08/17 08:57:22;;;;;;;8.67;5.37;;;23.90;98.00;;;;;;4998554;28;20487;-63
2023/08/17 08:59:50;;;;;;;10.27;5.70;;;24.00;98.00;;;;;;5032423;28;20458;-64
2023/08/17 09:02:17;;;;;;;8.23;4.97;;;24.20;98.00;;;;;;5014905;28;20489;-64
2023/08/17 09:04:45;;;;;;;7.90;5.10;;;24.50;98.00;;;;;;5032655;28;20455;-63
2023/08/17 09:07:14;;;;;;;8.33;5.40;;;24.70;98.00;;;;;;5031597;28;20459;-64
2023/08/17 09:09:44;;;;;;;9.63;5.17;;;24.80;98.00;;;;;;5031750;28;21009;-64
2023/08/17 09:12:15;;;;;;;7.97;5.00;;;25.00;98.00;;;;;;5031516;28;21070;-63
2023/08/17 09:14:42;;;;;;;8.60;5.03;;;24.90;98.00;;;;;;5031673;28;20458;-63
2023/08/17 09:17:10;;;;;;;10.63;6.30;;;25.00;98.00;;;;;;5031718;28;20450;-65
2023/08/17 09:19:37;;;;;;;11.13;5.80;;;25.10;98.00;;;;;;5031816;28;20496;-64
2023/08/17 09:22:07;;;;;;;8.10;5.20;;;25.10;98.00;;;;;;5032008;28;20486;-64
2023/08/17 09:24:38;;;;;;;9.07;5.60;;;25.20;98.00;;;;;;5032115;28;20455;-64
2023/08/17 09:27:05;;;;;;;7.57;5.17;;;25.40;98.00;;;;;;5032260;28;20502;-64
2023/08/17 09:29:36;;;;;;;10.30;6.03;;;25.30;98.00;;;;;;5031926;28;20454;-64
2023/08/17 09:32:07;;;;;;;11.27;5.70;;;25.10;98.00;;;;;;5032064;28;20460;-65
2023/08/17 09:34:34;;;;;;;10.63;6.20;;;25.10;98.00;;;;;;5014757;28;20450;-64
2023/08/17 09:37:04;;;;;;;8.50;5.40;;;25.20;98.00;;;;;;5031579;28;20442;-64
2023/08/17 09:39:31;;;;;;;10.60;5.90;;;25.40;98.00;;;;;;5032094;28;20533;-64
2023/08/17 09:42:00;;;;;;;8.83;5.43;;;25.50;98.00;;;;;;5031906;28;20497;-65
2023/08/17 09:44:28;;;;;;;9.20;5.50;;;25.70;98.00;;;;;;5031923;28;20491;-68
2023/08/17 09:46:57;;;;;;;9.30;5.20;;;26.00;98.00;;;;;;5014401;28;20467;-68
2023/08/17 09:49:25;;;;;;;9.43;5.97;;;26.20;98.00;;;;;;5031583;28;20459;-68
2023/08/17 09:51:53;;;;;;;12.33;5.47;;;26.40;98.00;;;;;;5031916;28;20451;-67
2023/08/17 09:54:23;;;;;;;7.20;5.07;;;26.50;98.00;;;;;;5031877;28;20554;-66
2023/08/17 09:56:51;;;;;;;8.10;5.37;;;26.70;98.00;;;;;;5031922;28;20804;-68
2023/08/17 09:59:20;;;;;;;9.17;5.40;;;26.80;98.00;;;;;;5032268;28;20459;-66
2023/08/17 10:01:50;;;;;;;8.63;5.83;;;26.90;98.00;;;;;;5035786;28;20539;-67
2023/08/17 10:04:22;;;;;;;9.47;5.80;;;26.90;98.00;;;;;;5018285;28;20521;-67
2023/08/17 10:06:52;;;;;;;9.40;5.80;;;27.00;98.00;;;;;;5035803;28;21156;-67
2023/08/17 10:09:24;;;;;;;9.53;5.70;;;27.20;98.00;;;;;;5036028;28;20489;-68
2023/08/17 10:11:53;;;;;;;11.87;6.63;;;27.40;98.00;;;;;;5018729;28;20486;-68
2023/08/17 10:14:26;;;;;;;9.97;6.03;;;27.50;98.00;;;;;;5034538;28;20454;-68
2023/08/17 10:17:02;;;;;;;10.07;6.50;;;27.60;98.00;;;;;;5036211;28;20872;-62
2023/08/17 10:19:35;;;;;;;9.90;5.80;;;27.70;98.00;;;;;;5035847;28;20450;-67
2023/08/17 10:22:08;;;;;;;10.33;6.40;;;27.80;98.00;;;;;;5035290;28;20486;-67
2023/08/17 10:24:38;;;;;;;10.97;5.30;;;27.90;98.00;;;;;;5035357;28;20458;-66
2023/08/17 10:27:06;;;;;;;11.77;6.00;;;28.00;98.00;;;;;;5035040;28;20539;-67
2023/08/17 10:29:37;;;;;;;10.13;5.90;;;28.10;98.00;;;;;;5035130;28;20835;-67
2023/08/17 10:32:06;;;;;;;10.53;6.60;;;28.30;98.00;;;;;;5035370;28;20477;-69
2023/08/17 10:34:34;;;;;;;11.50;6.10;;;28.30;98.00;;;;;;5034855;28;20456;-67
2023/08/17 10:37:02;;;;;;;9.90;6.13;;;28.40;98.00;;;;;;5035368;28;20481;-68
2023/08/17 10:39:30;;;;;;;10.70;6.10;;;28.40;98.00;;;;;;5033273;28;20462;-68
2023/08/17 10:41:59;;;;;;;9.43;6.20;;;28.50;98.00;;;;;;5035185;28;20485;-67
2023/08/17 10:44:45;;;;;;;9.57;5.87;;;28.60;98.00;;;;;;5035066;28;20771;-68
2023/08/17 10:47:25;;;;;;;10.20;6.70;;;28.60;98.00;;;;;;5034012;28;20459;-68
2023/08/17 10:49:56;;;;;;;11.87;6.60;;;28.60;98.00;;;;;;5035007;28;20466;-68
2023/08/17 10:52:28;;;;;;;9.63;6.17;;;28.80;98.00;;;;;;5035081;28;20462;-67
2023/08/17 10:54:56;;;;;;;11.30;6.40;;;28.90;98.00;;;;;;5035213;28;20454;-68
2023/08/17 10:57:30;;;;;;;10.97;6.77;;;29.00;98.00;;;;;;5034981;28;20486;-68
2023/08/17 11:00:21;;;;;;;10.73;6.70;;;29.20;98.00;;;;;;5035062;28;20974;-67
2023/08/17 11:03:05;;;;;;;10.37;6.53;;;29.30;98.00;;;;;;5034799;28;20486;-67
2023/08/17 11:05:41;;;;;;;11.33;6.63;;;29.40;98.00;;;;;;5015554;28;20458;-68
2023/08/17 11:08:10;;;;;;;12.10;7.20;;;29.60;98.00;;;;;;5034648;28;20477;-68
2023/08/17 11:10:38;;;;;;;13.07;7.00;;;29.50;98.00;;;;;;5017129;28;20497;-67
2023/08/17 11:13:08;;;;;;;11.17;7.27;;;29.60;98.00;;;;;;5034613;28;20455;-67
2023/08/17 11:15:44;;;;;;;15.10;7.23;;;29.70;98.00;;;;;;5035027;28;20443;-67
2023/08/17 11:18:12;;;;;;;10.57;7.03;;;29.80;98.00;;;;;;5034283;28;20447;-67
2023/08/17 11:20:40;;;;;;;13.07;7.30;;;29.90;98.00;;;;;;5034844;28;20459;-67
2023/08/17 11:23:08;;;;;;;15.93;7.10;;;29.90;98.00;;;;;;5034116;28;20810;-68
2023/08/17 11:25:36;;;;;;;12.07;7.13;;;29.90;98.00;;;;;;5034597;28;20537;-67
2023/08/17 11:28:04;;;;;;;11.83;7.37;;;30.10;98.00;;;;;;5033846;28;20459;-68
2023/08/17 11:30:33;;;;;;;10.97;7.00;;;30.30;98.00;;;;;;5033792;28;20467;-67
2023/08/17 11:33:02;;;;;;;15.23;7.53;;;30.50;98.00;;;;;;5016285;28;20505;-67
2023/08/17 11:35:29;;;;;;;10.10;6.77;;;30.70;98.00;;;;;;5033559;28;20674;-67
2023/08/17 11:37:56;;;;;;;12.40;7.03;;;30.80;98.00;;;;;;5033509;28;20462;-68
2023/08/17 11:40:24;;;;;;;13.03;7.10;;;31.10;98.00;;;;;;5033421;28;20971;-67
2023/08/17 11:42:51;;;;;;;11.70;7.17;;;31.40;98.00;;;;;;5033319;28;20573;-67
2023/08/17 11:45:19;;;;;;;11.77;7.40;;;31.60;98.00;;;;;;5033165;28;20451;-66
2023/08/17 11:47:48;;;;;;;9.83;6.57;;;31.60;98.00;;;;;;5033246;28;20458;-66
2023/08/17 11:50:18;;;;;;;10.60;7.00;;;31.50;98.00;;;;;;5033206;28;20795;-66
2023/08/17 11:52:45;;;;;;;11.90;6.70;;;31.50;98.00;;;;;;5032145;28;20455;-66
2023/08/17 11:55:17;;;;;;;10.80;6.70;;;31.60;98.00;;;;;;5033031;28;20458;-64
2023/08/17 11:57:45;;;;;;;12.93;7.40;;;31.70;98.00;;;;;;5033865;28;20447;-65
2023/08/17 12:00:20;;;;;;;10.63;7.03;;;31.70;98.00;;;;;;5033740;28;20454;-63
2023/08/17 12:02:48;;;;;;;10.00;6.53;;;31.70;98.00;;;;;;5016201;28;20560;-63
2023/08/17 12:05:23;;;;;;;10.57;6.60;;;31.70;98.00;;;;;;5033607;28;20462;-62
2023/08/17 12:07:50;;;;;;;11.10;6.60;;;31.60;98.00;;;;;;5016093;28;20500;-65
2023/08/17 12:10:19;;;;;;;10.37;6.63;;;31.50;98.00;;;;;;5033576;28;20931;-64
2023/08/17 12:12:48;;;;;;;10.73;6.70;;;31.30;98.00;;;;;;5033420;28;20451;-64
2023/08/17 12:15:15;;;;;;;9.53;6.53;;;31.40;98.00;;;;;;5033306;28;20482;-61
2023/08/17 12:17:46;;;;;;;10.87;7.40;;;31.40;98.00;;;;;;5015424;28;20469;-64
2023/08/17 12:20:18;;;;;;;11.77;6.70;;;31.50;98.00;;;;;;5033234;28;20545;-63
2023/08/17 12:22:47;;;;;;;9.83;6.80;;;31.60;98.00;;;;;;5032001;28;20501;-65
2023/08/17 12:25:14;;;;;;;10.43;6.60;;;31.60;98.00;;;;;;5032852;28;20450;-64
2023/08/17 12:27:41;;;;;;;9.30;5.93;;;31.60;98.00;;;;;;5015572;28;20447;-64
2023/08/17 12:30:15;;;;;;;11.23;7.10;;;31.50;98.00;;;;;;5032974;28;20458;-63
2023/08/17 12:32:42;;;;;;;11.03;6.80;;;31.10;98.00;;;;;;5033018;28;20446;-63
2023/08/17 12:35:09;;;;;;;13.47;7.23;;;30.80;98.00;;;;;;5015287;28;20454;-63
2023/08/17 12:37:36;;;;;;;10.87;7.00;;;30.50;98.00;;;;;;5015469;28;20857;-63
2023/08/17 12:40:07;;;;;;;10.10;6.83;;;30.20;98.00;;;;;;5032778;28;20945;-63
2023/08/17 12:42:34;;;;;;;9.83;6.50;;;30.00;98.00;;;;;;5033123;28;21024;-63
2023/08/17 12:45:01;;;;;;;11.60;6.60;;;29.70;98.00;;;;;;5032843;28;20466;-63
2023/08/17 12:47:28;;;;;;;10.23;6.60;;;29.40;98.00;;;;;;5032855;28;20458;-63
2023/08/17 12:49:56;;;;;;;9.83;6.43;;;29.20;98.00;;;;;;5032770;28;20455;-63
2023/08/17 12:52:23;;;;;;;10.63;6.70;;;29.10;98.00;;;;;;4983051;28;20471;-63